createdAt,value
2018-05-24T00:00:05.836Z,83.30
2018-05-24T00:01:09.193Z,83.20
2018-05-24T00:02:05.865Z,83.10
2018-05-24T00:03:05.581Z,83.20
2018-05-24T00:04:06.790Z,83.20
2018-05-24T00:05:08.068Z,83.10
2018-05-24T00:06:05.773Z,83.10
2018-05-24T00:07:06.490Z,83.10
2018-05-24T00:08:06.071Z,83.30
2018-05-24T00:09:05.755Z,83.40
2018-05-24T00:10:08.418Z,83.60
2018-05-24T00:11:06.403Z,83.60
2018-05-24T00:12:06.615Z,83.60
2018-05-24T00:13:06.475Z,83.80
2018-05-24T00:14:06.641Z,83.80
2018-05-24T00:15:05.660Z,83.70
2018-05-24T00:16:06.609Z,83.70
2018-05-24T00:17:06.705Z,83.70
2018-05-24T00:18:06.310Z,83.60
2018-05-24T00:19:06.390Z,83.50
2018-05-24T00:20:11.143Z,83.60
2018-05-24T00:21:05.746Z,83.50
2018-05-24T00:22:13.691Z,83.50
2018-05-24T00:23:11.269Z,83.50
2018-05-24T00:24:05.760Z,83.50
2018-05-24T00:25:11.460Z,83.60
2018-05-24T00:26:10.946Z,83.50
2018-05-24T00:27:05.645Z,83.50
2018-05-24T00:28:06.364Z,83.60
2018-05-24T00:29:05.608Z,83.40
2018-05-24T00:30:06.316Z,83.40
2018-05-24T00:31:09.099Z,83.40
2018-05-24T00:32:11.121Z,83.40
2018-05-24T00:33:09.033Z,83.30
2018-05-24T00:34:08.126Z,83.20
2018-05-24T00:35:08.210Z,83.30
2018-05-24T00:36:08.464Z,83.20
2018-05-24T00:37:05.977Z,83.20
2018-05-24T00:38:08.248Z,83.30
2018-05-24T00:39:08.453Z,83.40
2018-05-24T00:40:06.151Z,83.40
2018-05-24T00:41:08.288Z,83.20
2018-05-24T00:42:10.871Z,83.10
2018-05-24T00:43:06.866Z,83.10
2018-05-24T00:44:08.005Z,83.00
2018-05-24T00:45:08.044Z,83.00
2018-05-24T00:46:05.847Z,83.00
2018-05-24T00:47:09.033Z,83.10
2018-05-24T00:48:05.772Z,83.10
2018-05-24T00:49:09.112Z,82.90
2018-05-24T00:50:05.891Z,82.90
2018-05-24T00:51:05.708Z,82.90
2018-05-24T00:52:06.508Z,82.80
2018-05-24T00:53:06.260Z,82.90
2018-05-24T00:54:06.365Z,82.80
2018-05-24T00:55:05.833Z,82.60
2018-05-24T00:56:08.212Z,82.90
2018-05-24T00:57:05.898Z,82.90
2018-05-24T00:58:08.194Z,82.90
2018-05-24T00:59:08.366Z,82.90
2018-05-24T01:00:05.545Z,82.90
2018-05-24T01:01:08.969Z,83.00
2018-05-24T01:02:08.522Z,83.10
2018-05-24T01:03:06.074Z,83.00
2018-05-24T01:04:05.722Z,83.00
2018-05-24T01:05:08.931Z,82.90
2018-05-24T01:06:06.502Z,82.90
2018-05-24T01:07:08.685Z,82.90
2018-05-24T01:08:08.739Z,82.70
2018-05-24T01:09:06.514Z,82.70
2018-05-24T01:10:08.728Z,82.50
2018-05-24T01:11:08.966Z,82.60
2018-05-24T01:12:05.521Z,82.60
2018-05-24T01:13:08.775Z,82.30
2018-05-24T01:14:06.840Z,82.30
2018-05-24T01:15:05.459Z,82.10
2018-05-24T01:16:11.758Z,82.30
2018-05-24T01:17:08.930Z,82.00
2018-05-24T01:18:09.038Z,81.90
2018-05-24T01:19:05.647Z,81.90
2018-05-24T01:20:05.935Z,81.80
2018-05-24T01:21:05.991Z,81.90
2018-05-24T01:22:08.443Z,81.70
2018-05-24T01:23:06.333Z,81.80
2018-05-24T01:24:11.139Z,82.00
2018-05-24T01:25:08.833Z,81.90
2018-05-24T01:26:06.332Z,81.90
2018-05-24T01:27:05.771Z,82.00
2018-05-24T01:28:05.803Z,81.90
2018-05-24T01:29:09.136Z,81.50
2018-05-24T01:30:05.761Z,81.50
2018-05-24T01:31:06.840Z,81.70
2018-05-24T01:32:06.095Z,81.90
2018-05-24T01:33:05.979Z,81.90
2018-05-24T01:34:08.498Z,81.70
2018-05-24T01:35:06.227Z,81.70
2018-05-24T01:36:06.436Z,81.70
2018-05-24T01:37:05.597Z,81.80
2018-05-24T01:38:06.261Z,81.60
2018-05-24T01:39:05.988Z,81.70
2018-05-24T01:40:08.396Z,81.90
2018-05-24T01:41:05.975Z,82.10
2018-05-24T01:42:05.757Z,81.90
2018-05-24T01:43:06.682Z,81.90
2018-05-24T01:44:06.268Z,81.80
2018-05-24T01:45:11.129Z,81.90
2018-05-24T01:46:05.536Z,82.00
2018-05-24T01:47:08.687Z,82.00
2018-05-24T01:48:06.379Z,82.00
2018-05-24T01:49:06.018Z,82.10
2018-05-24T01:50:15.988Z,81.80
2018-05-24T01:51:05.999Z,81.70
2018-05-24T01:52:08.318Z,81.80
2018-05-24T01:53:08.436Z,81.90
2018-05-24T01:54:08.495Z,81.90
2018-05-24T01:55:06.319Z,81.90
2018-05-24T01:56:08.595Z,81.70
2018-05-24T01:57:06.409Z,81.70
2018-05-24T01:58:06.007Z,82.00
2018-05-24T01:59:08.890Z,82.20
2018-05-24T02:00:11.209Z,82.30
2018-05-24T02:01:05.819Z,82.30
2018-05-24T02:02:08.102Z,82.20
2018-05-24T02:03:08.351Z,82.30
2018-05-24T02:04:06.293Z,82.30
2018-05-24T02:05:08.492Z,82.50
2018-05-24T02:06:11.028Z,82.30
2018-05-24T02:07:05.719Z,82.30
2018-05-24T02:08:05.962Z,82.30
2018-05-24T02:09:08.219Z,82.40
2018-05-24T02:10:06.157Z,82.40
2018-05-24T02:11:08.364Z,82.60
2018-05-24T02:12:05.944Z,82.60
2018-05-24T02:13:08.105Z,82.60
2018-05-24T02:14:05.783Z,82.60
2018-05-24T02:15:07.009Z,82.60
2018-05-24T02:16:06.704Z,82.60
2018-05-24T02:17:09.063Z,82.40
2018-05-24T02:18:10.558Z,82.40
2018-05-24T02:19:11.239Z,82.40
2018-05-24T02:20:06.304Z,82.60
2018-05-24T02:21:08.440Z,82.50
2018-05-24T02:22:06.155Z,82.60
2018-05-24T02:23:10.809Z,82.60
2018-05-24T02:24:06.574Z,82.50
2018-05-24T02:25:06.590Z,82.40
2018-05-24T02:26:06.553Z,82.60
2018-05-24T02:27:08.752Z,82.60
2018-05-24T02:28:06.432Z,82.60
2018-05-24T02:29:06.508Z,82.40
2018-05-24T02:30:08.622Z,82.40
2018-05-24T02:31:08.811Z,82.40
2018-05-24T02:32:08.890Z,82.30
2018-05-24T02:33:06.755Z,82.40
2018-05-24T02:34:09.122Z,82.50
2018-05-24T02:35:08.148Z,82.50
2018-05-24T02:36:06.361Z,82.50
2018-05-24T02:37:08.901Z,82.40
2018-05-24T02:38:09.118Z,82.40
2018-05-24T02:39:05.962Z,82.40
2018-05-24T02:40:05.633Z,82.50
2018-05-24T02:41:09.205Z,82.40
2018-05-24T02:42:08.794Z,82.40
2018-05-24T02:43:06.643Z,82.40
2018-05-24T02:44:06.484Z,82.50
2018-05-24T02:45:06.204Z,82.80
2018-05-24T02:46:06.972Z,82.60
2018-05-24T02:47:10.742Z,82.50
2018-05-24T02:48:06.293Z,82.50
2018-05-24T02:49:06.014Z,82.60
2018-05-24T02:50:05.758Z,82.70
2018-05-24T02:51:05.558Z,82.70
2018-05-24T02:52:08.902Z,82.60
2018-05-24T02:53:08.835Z,82.60
2018-05-24T02:54:06.555Z,82.60
2018-05-24T02:55:11.376Z,82.60
2018-05-24T02:56:06.243Z,82.60
2018-05-24T02:57:08.617Z,82.70
2018-05-24T02:58:06.115Z,82.70
2018-05-24T02:59:11.048Z,82.70
2018-05-24T03:00:08.366Z,82.60
2018-05-24T03:01:05.883Z,82.60
2018-05-24T03:02:05.728Z,82.50
2018-05-24T03:03:06.904Z,82.60
2018-05-24T03:04:10.573Z,82.70
2018-05-24T03:05:11.182Z,83.00
2018-05-24T03:06:05.941Z,83.00
2018-05-24T03:07:05.972Z,83.10
2018-05-24T03:08:10.858Z,83.20
2018-05-24T03:09:09.018Z,83.10
2018-05-24T03:10:10.534Z,83.10
2018-05-24T03:11:06.143Z,83.20
2018-05-24T03:12:08.318Z,83.20
2018-05-24T03:13:06.150Z,83.20
2018-05-24T03:14:06.149Z,83.10
2018-05-24T03:15:13.529Z,83.30
2018-05-24T03:16:06.560Z,83.30
2018-05-24T03:17:06.288Z,83.30
2018-05-24T03:18:05.961Z,83.30
2018-05-24T03:19:05.616Z,83.40
2018-05-24T03:20:06.518Z,83.60
2018-05-24T03:21:15.524Z,83.60
2018-05-24T03:22:08.546Z,83.80
2018-05-24T03:23:08.602Z,84.10
2018-05-24T03:24:06.518Z,84.20
2018-05-24T03:25:06.329Z,84.30
2018-05-24T03:26:06.402Z,84.30
2018-05-24T03:27:08.624Z,84.40
2018-05-24T03:28:06.642Z,84.30
2018-05-24T03:29:05.925Z,84.30
2018-05-24T03:30:06.297Z,84.40
2018-05-24T03:31:05.928Z,84.40
2018-05-24T03:32:08.316Z,84.40
2018-05-24T03:33:05.921Z,84.40
2018-05-24T03:34:08.110Z,84.30
2018-05-24T03:35:10.928Z,84.30
2018-05-24T03:36:06.270Z,84.30
2018-05-24T03:37:06.501Z,84.60
2018-05-24T03:38:06.509Z,84.50
2018-05-24T03:39:08.870Z,84.80
2018-05-24T03:40:11.482Z,84.80
2018-05-24T03:41:08.566Z,84.80
2018-05-24T03:42:13.830Z,84.60
2018-05-24T03:43:06.335Z,84.60
2018-05-24T03:44:08.460Z,85.10
2018-05-24T03:45:08.846Z,85.00
2018-05-24T03:46:08.351Z,85.10
2018-05-24T03:47:11.091Z,85.00
2018-05-24T03:48:10.666Z,85.00
2018-05-24T03:49:12.228Z,84.80
2018-05-24T03:50:10.884Z,85.00
2018-05-24T03:51:10.951Z,84.80
2018-05-24T03:52:09.333Z,85.10
2018-05-24T03:53:08.355Z,85.20
2018-05-24T03:54:05.973Z,85.30
2018-05-24T03:55:05.908Z,85.10
2018-05-24T03:56:08.296Z,85.10
2018-05-24T03:57:08.319Z,85.10
2018-05-24T03:58:05.860Z,85.00
2018-05-24T03:59:06.007Z,85.10
2018-05-24T04:00:05.629Z,85.40
2018-05-24T04:01:08.388Z,85.40
2018-05-24T04:02:05.982Z,85.40
2018-05-24T04:03:11.485Z,85.90
2018-05-24T04:04:08.585Z,85.90
2018-05-24T04:05:05.729Z,85.90
2018-05-24T04:06:06.082Z,86.00
2018-05-24T04:07:05.801Z,86.00
2018-05-24T04:08:11.716Z,86.10
2018-05-24T04:09:09.128Z,86.30
2018-05-24T04:10:06.396Z,86.20
2018-05-24T04:11:06.391Z,86.40
2018-05-24T04:12:08.570Z,86.30
2018-05-24T04:13:11.070Z,86.30
2018-05-24T04:14:05.859Z,86.40
2018-05-24T04:15:05.904Z,86.50
2018-05-24T04:16:06.562Z,86.40
2018-05-24T04:17:06.145Z,86.70
2018-05-24T04:18:10.959Z,86.80
2018-05-24T04:19:08.861Z,86.50
2018-05-24T04:20:06.227Z,86.50
2018-05-24T04:21:05.810Z,86.80
2018-05-24T04:22:06.399Z,86.90
2018-05-24T04:23:06.622Z,86.90
2018-05-24T04:24:11.363Z,87.00
2018-05-24T04:25:08.688Z,87.00
2018-05-24T04:26:11.347Z,87.20
2018-05-24T04:27:08.998Z,87.00
2018-05-24T04:28:08.388Z,87.00
2018-05-24T04:29:06.028Z,87.00
2018-05-24T04:30:06.780Z,87.00
2018-05-24T04:31:08.936Z,87.00
2018-05-24T04:32:05.485Z,86.80
2018-05-24T04:33:06.378Z,87.00
2018-05-24T04:34:06.286Z,86.80
2018-05-24T04:35:08.434Z,87.00
2018-05-24T04:36:08.105Z,87.20
2018-05-24T04:37:08.769Z,87.40
2018-05-24T04:38:06.387Z,87.40
2018-05-24T04:39:06.263Z,87.30
2018-05-24T04:40:10.951Z,87.40
2018-05-24T04:41:08.554Z,87.30
2018-05-24T04:42:08.767Z,87.30
2018-05-24T04:43:06.505Z,87.30
2018-05-24T04:44:05.677Z,87.40
2018-05-24T04:45:06.899Z,87.50
2018-05-24T04:46:13.471Z,87.50
2018-05-24T04:47:11.097Z,87.50
2018-05-24T04:48:06.203Z,87.70
2018-05-24T04:49:08.433Z,87.80
2018-05-24T04:50:13.466Z,88.20
2018-05-24T04:51:08.548Z,88.30
2018-05-24T04:52:08.641Z,88.30
2018-05-24T04:53:06.284Z,88.30
2018-05-24T04:54:09.355Z,88.20
2018-05-24T04:55:08.411Z,88.30
2018-05-24T04:56:08.479Z,88.60
2018-05-24T04:57:05.993Z,88.60
2018-05-24T04:58:10.844Z,88.70
2018-05-24T04:59:06.091Z,88.70
2018-05-24T05:00:08.318Z,88.70
2018-05-24T05:01:05.825Z,88.80
2018-05-24T05:02:06.699Z,88.50
2018-05-24T05:03:06.589Z,88.40
2018-05-24T05:04:05.915Z,88.50
2018-05-24T05:05:05.815Z,88.70
2018-05-24T05:06:13.982Z,88.70
2018-05-24T05:07:05.748Z,88.70
2018-05-24T05:08:05.695Z,88.70
2018-05-24T05:09:06.590Z,88.90
2018-05-24T05:10:06.244Z,88.80
2018-05-24T05:11:06.190Z,88.90
2018-05-24T05:12:05.833Z,89.00
2018-05-24T05:13:06.276Z,89.10
2018-05-24T05:14:05.899Z,89.10
2018-05-24T05:15:08.176Z,89.20
2018-05-24T05:16:06.350Z,89.20
2018-05-24T05:17:06.028Z,88.90
2018-05-24T05:18:05.696Z,88.80
2018-05-24T05:19:11.404Z,88.50
2018-05-24T05:20:06.001Z,88.50
2018-05-24T05:21:10.747Z,88.50
2018-05-24T05:22:08.835Z,88.80
2018-05-24T05:23:06.535Z,88.80
2018-05-24T05:24:06.880Z,88.80
2018-05-24T05:25:08.409Z,88.80
2018-05-24T05:26:07.025Z,88.80
2018-05-24T05:27:11.756Z,88.90
2018-05-24T05:28:08.865Z,88.80
2018-05-24T05:29:06.038Z,88.80
2018-05-24T05:30:07.020Z,88.60
2018-05-24T05:31:08.187Z,88.70
2018-05-24T05:32:08.405Z,88.70
2018-05-24T05:33:06.172Z,88.70
2018-05-24T05:34:13.793Z,88.50
2018-05-24T05:35:05.570Z,88.50
2018-05-24T05:36:07.389Z,88.60
2018-05-24T05:37:06.346Z,88.60
2018-05-24T05:38:08.669Z,88.50
2018-05-24T05:39:08.740Z,88.50
2018-05-24T05:40:08.780Z,88.40
2018-05-24T05:41:06.432Z,88.40
2018-05-24T05:42:08.369Z,88.30
2018-05-24T05:43:06.244Z,88.30
2018-05-24T05:44:05.908Z,88.30
2018-05-24T05:45:05.637Z,88.30
2018-05-24T05:46:08.902Z,88.40
2018-05-24T05:47:06.405Z,88.40
2018-05-24T05:48:08.815Z,88.50
2018-05-24T05:49:09.591Z,88.50
2018-05-24T05:50:06.168Z,88.30
2018-05-24T05:51:10.635Z,88.10
2018-05-24T05:52:06.468Z,88.40
2018-05-24T05:53:08.801Z,88.30
2018-05-24T05:54:11.360Z,88.30
2018-05-24T05:55:05.927Z,88.30
2018-05-24T05:56:06.084Z,88.20
2018-05-24T05:57:05.733Z,88.10
2018-05-24T05:58:06.972Z,88.10
2018-05-24T05:59:06.331Z,88.20
2018-05-24T06:00:06.222Z,88.10
2018-05-24T06:01:08.546Z,88.00
2018-05-24T06:02:08.610Z,88.00
2018-05-24T06:03:08.624Z,88.00
2018-05-24T06:04:09.916Z,88.00
2018-05-24T06:05:06.535Z,87.90
2018-05-24T06:06:06.690Z,87.80
2018-05-24T06:07:08.948Z,87.80
2018-05-24T06:08:11.379Z,87.40
2018-05-24T06:09:08.504Z,87.50
2018-05-24T06:10:11.032Z,87.40
2018-05-24T06:11:06.223Z,87.30
2018-05-24T06:12:06.581Z,87.50
2018-05-24T06:13:06.085Z,87.60
2018-05-24T06:14:05.600Z,87.40
2018-05-24T06:15:10.612Z,87.40
2018-05-24T06:16:06.180Z,87.40
2018-05-24T06:17:07.028Z,87.40
2018-05-24T06:18:08.133Z,87.40
2018-05-24T06:19:08.126Z,87.50
2018-05-24T06:20:05.937Z,87.40
2018-05-24T06:21:06.514Z,87.40
2018-05-24T06:22:06.201Z,87.30
2018-05-24T06:23:06.348Z,87.30
2018-05-24T06:24:08.652Z,87.00
2018-05-24T06:25:06.480Z,87.20
2018-05-24T06:26:06.154Z,87.10
2018-05-24T06:27:06.759Z,87.20
2018-05-24T06:28:06.365Z,87.00
2018-05-24T06:29:05.871Z,87.00
2018-05-24T06:30:08.154Z,87.10
2018-05-24T06:31:05.747Z,87.10
2018-05-24T06:32:08.932Z,87.00
2018-05-24T06:33:08.468Z,86.90
2018-05-24T06:34:05.930Z,86.90
2018-05-24T06:35:06.561Z,87.00
2018-05-24T06:36:08.614Z,86.50
2018-05-24T06:37:07.368Z,86.50
2018-05-24T06:38:08.453Z,86.30
2018-05-24T06:39:06.540Z,86.30
2018-05-24T06:40:06.356Z,86.00
2018-05-24T06:41:08.537Z,85.80
2018-05-24T06:42:09.127Z,85.90
2018-05-24T06:43:05.954Z,85.90
2018-05-24T06:44:05.860Z,85.80
2018-05-24T06:45:06.509Z,85.80
2018-05-24T06:46:06.187Z,85.80
2018-05-24T06:47:11.061Z,86.00
2018-05-24T06:48:06.207Z,86.00
2018-05-24T06:49:06.512Z,86.00
2018-05-24T06:50:06.284Z,86.00
2018-05-24T06:51:06.565Z,86.00
2018-05-24T06:52:05.791Z,86.00
2018-05-24T06:53:08.170Z,85.80
2018-05-24T06:54:06.042Z,85.80
2018-05-24T06:55:08.206Z,86.00
2018-05-24T06:56:08.869Z,85.80
2018-05-24T06:57:08.350Z,85.60
2018-05-24T06:58:06.505Z,85.80
2018-05-24T06:59:05.918Z,85.70
2018-05-24T07:00:05.586Z,85.60
2018-05-24T07:01:08.832Z,85.50
2018-05-24T07:02:09.082Z,85.60
2018-05-24T07:03:08.252Z,85.60
2018-05-24T07:04:06.034Z,85.60
2018-05-24T07:05:08.276Z,85.30
2018-05-24T07:06:06.482Z,85.30
2018-05-24T07:07:06.462Z,85.20
2018-05-24T07:08:08.717Z,85.20
2018-05-24T07:09:08.600Z,85.00
2018-05-24T07:10:06.101Z,85.00
2018-05-24T07:11:05.812Z,85.00
2018-05-24T07:12:06.620Z,84.90
2018-05-24T07:13:06.393Z,85.00
2018-05-24T07:14:11.268Z,84.90
2018-05-24T07:15:05.806Z,84.90
2018-05-24T07:16:05.459Z,84.80
2018-05-24T07:17:13.536Z,84.90
2018-05-24T07:18:08.714Z,85.10
2018-05-24T07:19:06.524Z,85.10
2018-05-24T07:20:06.462Z,85.00
2018-05-24T07:21:08.702Z,84.90
2018-05-24T07:22:06.171Z,84.80
2018-05-24T07:23:10.904Z,84.80
2018-05-24T07:24:06.769Z,85.00
2018-05-24T07:25:06.719Z,85.20
2018-05-24T07:26:11.474Z,85.20
2018-05-24T07:27:05.622Z,85.20
2018-05-24T07:28:05.523Z,85.20
2018-05-24T07:29:06.658Z,85.20
2018-05-24T07:30:06.785Z,85.30
2018-05-24T07:31:06.628Z,85.20
2018-05-24T07:32:06.450Z,85.20
2018-05-24T07:33:08.761Z,85.20
2018-05-24T07:34:06.890Z,85.20
2018-05-24T07:35:05.499Z,85.20
2018-05-24T07:36:06.111Z,85.20
2018-05-24T07:37:05.986Z,85.10
2018-05-24T07:38:05.738Z,85.20
2018-05-24T07:39:06.386Z,85.10
2018-05-24T07:40:08.684Z,85.10
2018-05-24T07:41:08.954Z,85.10
2018-05-24T07:42:09.126Z,85.10
2018-05-24T07:43:05.777Z,85.10
2018-05-24T07:44:06.353Z,85.20
2018-05-24T07:45:08.965Z,85.30
2018-05-24T07:46:05.536Z,85.30
2018-05-24T07:47:06.407Z,85.30
2018-05-24T07:48:06.311Z,85.30
2018-05-24T07:49:06.084Z,85.30
2018-05-24T07:50:08.860Z,85.40
2018-05-24T07:51:06.399Z,85.40
2018-05-24T07:52:06.110Z,85.40
2018-05-24T07:53:11.229Z,85.60
2018-05-24T07:54:05.821Z,85.50
2018-05-24T07:55:06.960Z,85.50
2018-05-24T07:56:05.555Z,85.50
2018-05-24T07:57:05.648Z,85.40
2018-05-24T07:58:06.611Z,85.20
2018-05-24T07:59:06.733Z,85.30
2018-05-24T08:00:06.485Z,85.00
2018-05-24T08:01:06.402Z,84.80
2018-05-24T08:02:06.850Z,84.80
2018-05-24T08:03:08.614Z,84.80
2018-05-24T08:04:06.535Z,84.80
2018-05-24T08:05:10.755Z,84.70
2018-05-24T08:06:06.726Z,84.80
2018-05-24T08:07:09.051Z,84.50
2018-05-24T08:08:05.629Z,84.50
2018-05-24T08:09:08.757Z,83.90
2018-05-24T08:10:08.788Z,83.20
2018-05-24T08:11:09.699Z,82.70
2018-05-24T08:12:08.684Z,82.10
2018-05-24T08:13:06.383Z,82.10
2018-05-24T08:14:06.267Z,81.90
2018-05-24T08:15:08.526Z,82.20
2018-05-24T08:16:06.550Z,82.20
2018-05-24T08:17:08.964Z,82.40
2018-05-24T08:18:13.687Z,82.30
2018-05-24T08:19:08.387Z,82.40
2018-05-24T08:20:06.288Z,82.40
2018-05-24T08:21:06.323Z,82.60
2018-05-24T08:22:11.015Z,82.70
2018-05-24T08:23:08.756Z,82.90
2018-05-24T08:24:06.384Z,82.90
2018-05-24T08:25:06.645Z,82.90
2018-05-24T08:26:06.411Z,83.00
2018-05-24T08:27:06.049Z,83.30
2018-05-24T08:28:06.212Z,83.10
2018-05-24T08:29:06.007Z,83.40
2018-05-24T08:30:08.171Z,83.50
2018-05-24T08:31:05.774Z,83.50
2018-05-24T08:32:06.543Z,83.60
2018-05-24T08:33:06.425Z,83.50
2018-05-24T08:34:06.100Z,83.70
2018-05-24T08:35:11.498Z,83.60
2018-05-24T08:36:06.610Z,83.70
2018-05-24T08:37:06.637Z,83.70
2018-05-24T08:38:10.733Z,83.70
2018-05-24T08:39:08.395Z,83.20
2018-05-24T08:40:06.093Z,83.20
2018-05-24T08:41:08.261Z,83.70
2018-05-24T08:42:06.191Z,83.70
2018-05-24T08:43:09.582Z,83.80
2018-05-24T08:44:05.901Z,83.80
2018-05-24T08:45:05.615Z,83.90
2018-05-24T08:46:08.828Z,83.80
2018-05-24T08:47:09.122Z,83.90
2018-05-24T08:48:10.627Z,84.00
2018-05-24T08:49:06.238Z,84.00
2018-05-24T08:50:08.383Z,84.10
2018-05-24T08:51:05.984Z,84.10
2018-05-24T08:52:05.801Z,84.30
2018-05-24T08:53:11.294Z,84.30
2018-05-24T08:54:06.125Z,84.30
2018-05-24T08:55:10.917Z,84.40
2018-05-24T08:56:09.119Z,84.50
2018-05-24T08:57:06.979Z,84.50
2018-05-24T08:58:11.050Z,84.30
2018-05-24T08:59:06.114Z,84.20
2018-05-24T09:00:05.976Z,84.40
2018-05-24T09:01:06.345Z,84.40
2018-05-24T09:02:10.698Z,84.50
2018-05-24T09:03:06.830Z,84.60
2018-05-24T09:04:06.177Z,84.90
2018-05-24T09:05:06.087Z,84.80
2018-05-24T09:06:06.171Z,84.70
2018-05-24T09:07:08.391Z,84.80
2018-05-24T09:08:06.400Z,84.80
2018-05-24T09:09:06.275Z,84.80
2018-05-24T09:10:06.391Z,84.80
2018-05-24T09:11:06.112Z,84.90
2018-05-24T09:12:05.892Z,85.00
2018-05-24T09:13:08.161Z,84.90
2018-05-24T09:14:08.135Z,85.00
2018-05-24T09:15:05.629Z,85.00
2018-05-24T09:16:11.289Z,85.00
2018-05-24T09:17:06.009Z,85.00
2018-05-24T09:18:06.822Z,85.10
2018-05-24T09:19:08.925Z,85.30
2018-05-24T09:20:06.911Z,85.30
2018-05-24T09:21:05.524Z,85.30
2018-05-24T09:22:06.136Z,85.30
2018-05-24T09:23:06.399Z,85.10
2018-05-24T09:24:08.908Z,85.10
2018-05-24T09:25:09.132Z,85.10
2018-05-24T09:26:05.600Z,85.10
2018-05-24T09:27:06.258Z,85.00
2018-05-24T09:28:06.087Z,85.30
2018-05-24T09:29:08.238Z,84.80
2018-05-24T09:30:08.179Z,84.80
2018-05-24T09:31:06.024Z,84.80
2018-05-24T09:32:05.774Z,85.20
2018-05-24T09:33:06.546Z,85.30
2018-05-24T09:34:05.847Z,85.40
2018-05-24T09:35:13.344Z,85.30
2018-05-24T09:36:08.572Z,85.30
2018-05-24T09:37:05.667Z,85.30
2018-05-24T09:38:08.872Z,85.60
2018-05-24T09:39:08.193Z,85.60
2018-05-24T09:40:05.784Z,85.60
2018-05-24T09:41:10.540Z,85.70
2018-05-24T09:42:06.550Z,85.60
2018-05-24T09:43:08.466Z,85.60
2018-05-24T09:44:08.510Z,85.80
2018-05-24T09:45:08.474Z,85.90
2018-05-24T09:46:06.207Z,86.00
2018-05-24T09:47:08.304Z,86.10
2018-05-24T09:48:06.250Z,86.10
2018-05-24T09:49:05.830Z,86.60
2018-05-24T09:50:06.582Z,86.60
2018-05-24T09:51:06.225Z,86.40
2018-05-24T09:52:06.130Z,86.60
2018-05-24T09:53:11.211Z,86.50
2018-05-24T09:54:06.051Z,86.50
2018-05-24T09:55:05.629Z,86.60
2018-05-24T09:56:08.620Z,86.50
2018-05-24T09:57:05.807Z,86.50
2018-05-24T09:58:06.208Z,86.60
2018-05-24T09:59:05.850Z,86.60
2018-05-24T10:00:05.870Z,86.70
2018-05-24T10:01:10.712Z,86.90
2018-05-24T10:02:06.447Z,87.00
2018-05-24T10:03:05.787Z,86.90
2018-05-24T10:04:06.793Z,86.90
2018-05-24T10:05:12.493Z,86.90
2018-05-24T10:06:08.707Z,86.70
2018-05-24T10:07:08.785Z,86.80
2018-05-24T10:08:06.899Z,86.90
2018-05-24T10:09:10.941Z,61.40
2018-05-24T10:10:11.436Z,87.10
2018-05-24T10:11:09.018Z,87.00
2018-05-24T10:12:05.587Z,86.90
2018-05-24T10:13:06.433Z,86.80
2018-05-24T10:14:08.664Z,87.00
2018-05-24T10:15:06.276Z,87.00
2018-05-24T10:16:08.590Z,87.20
2018-05-24T10:17:06.296Z,87.10
2018-05-24T10:18:08.576Z,87.30
2018-05-24T10:19:07.415Z,87.30
2018-05-24T10:20:06.385Z,87.40
2018-05-24T10:21:11.126Z,87.30
2018-05-24T10:22:05.614Z,87.30
2018-05-24T10:23:06.642Z,87.50
2018-05-24T10:24:08.758Z,87.50
2018-05-24T10:25:06.780Z,87.50
2018-05-24T10:26:09.244Z,87.70
2018-05-24T10:27:18.531Z,87.80
2018-05-24T10:28:06.269Z,87.80
2018-05-24T10:29:10.932Z,87.90
2018-05-24T10:30:05.407Z,87.90
2018-05-24T10:31:06.070Z,88.20
2018-05-24T10:32:05.739Z,88.10
2018-05-24T10:33:16.515Z,88.30
2018-05-24T10:34:08.691Z,88.50
2018-05-24T10:35:13.793Z,88.70
2018-05-24T10:36:08.812Z,88.90
2018-05-24T10:37:13.872Z,89.00
2018-05-24T10:38:06.528Z,89.00
2018-05-24T10:39:06.536Z,88.70
2018-05-24T10:40:08.710Z,88.70
2018-05-24T10:41:08.173Z,88.80
2018-05-24T10:42:05.661Z,88.80
2018-05-24T10:43:06.314Z,88.80
2018-05-24T10:44:08.473Z,88.80
2018-05-24T10:45:06.168Z,88.80
2018-05-24T10:46:06.114Z,88.80
2018-05-24T10:47:06.229Z,89.00
2018-05-24T10:48:08.333Z,89.10
2018-05-24T10:49:06.117Z,89.10
2018-05-24T10:50:13.858Z,89.00
2018-05-24T10:51:06.726Z,89.00
2018-05-24T10:52:11.481Z,89.10
2018-05-24T10:53:05.964Z,89.10
2018-05-24T10:54:08.242Z,89.00
2018-05-24T10:55:10.937Z,89.00
2018-05-24T10:56:08.586Z,89.10
2018-05-24T10:57:05.864Z,89.20
2018-05-24T10:58:05.464Z,89.50
2018-05-24T10:59:08.657Z,89.50
2018-05-24T11:00:08.656Z,89.40
2018-05-24T11:01:06.113Z,89.40
2018-05-24T11:02:05.648Z,89.30
2018-05-24T11:03:09.257Z,89.50
2018-05-24T11:04:06.440Z,89.50
2018-05-24T11:05:11.321Z,89.60
2018-05-24T11:07:08.793Z,89.60
2018-05-24T11:08:11.298Z,89.60
2018-05-24T11:09:06.431Z,89.60
2018-05-24T11:10:06.195Z,89.70
2018-05-24T11:11:05.768Z,89.80
2018-05-24T11:12:09.265Z,89.90
2018-05-24T11:13:07.479Z,89.90
2018-05-24T11:14:06.255Z,89.90
2018-05-24T11:15:13.581Z,90.10
2018-05-24T11:16:08.015Z,90.10
2018-05-24T11:17:08.146Z,90.10
2018-05-24T11:18:05.618Z,90.10
2018-05-24T11:19:08.722Z,89.90
2018-05-24T11:20:05.684Z,89.70
2018-05-24T11:21:10.784Z,89.90
2018-05-24T11:22:06.335Z,90.00
2018-05-24T11:23:05.998Z,90.00
2018-05-24T11:24:08.522Z,90.20
2018-05-24T11:25:08.716Z,90.20
2018-05-24T11:26:08.696Z,90.30
2018-05-24T11:27:09.102Z,90.30
2018-05-24T11:28:05.616Z,90.30
2018-05-24T11:29:11.257Z,90.40
2018-05-24T11:30:05.841Z,90.40
2018-05-24T11:31:08.104Z,90.50
2018-05-24T11:32:06.043Z,90.50
2018-05-24T11:33:08.546Z,90.40
2018-05-24T11:34:08.552Z,90.30
2018-05-24T11:35:06.328Z,90.30
2018-05-24T11:36:05.968Z,90.40
2018-05-24T11:37:05.845Z,90.40
2018-05-24T11:38:06.012Z,90.40
2018-05-24T11:39:10.666Z,90.50
2018-05-24T11:40:06.286Z,90.60
2018-05-24T11:41:08.439Z,90.50
2018-05-24T11:42:08.594Z,90.50
2018-05-24T11:43:08.851Z,90.60
2018-05-24T11:44:06.463Z,90.60
2018-05-24T11:45:06.528Z,90.50
2018-05-24T11:46:08.738Z,90.40
2018-05-24T11:47:08.897Z,90.40
2018-05-24T11:48:06.643Z,90.40
2018-05-24T11:49:06.691Z,90.40
2018-05-24T11:50:06.614Z,90.40
2018-05-24T11:51:06.317Z,90.50
2018-05-24T11:52:06.294Z,90.50
2018-05-24T11:53:06.489Z,90.40
2018-05-24T11:54:08.922Z,90.40
2018-05-24T11:55:08.910Z,90.50
2018-05-24T11:56:08.926Z,90.40
2018-05-24T11:57:09.042Z,90.20
2018-05-24T11:58:05.649Z,90.20
2018-05-24T11:59:06.262Z,90.20
2018-05-24T12:00:05.905Z,90.00
2018-05-24T12:01:05.892Z,90.10
2018-05-24T12:02:15.571Z,90.20
2018-05-24T12:03:05.928Z,90.30
2018-05-24T12:04:08.214Z,90.20
2018-05-24T12:05:05.829Z,90.20
2018-05-24T12:06:05.492Z,90.20
2018-05-24T12:07:11.319Z,90.00
2018-05-24T12:08:08.457Z,90.00
2018-05-24T12:09:06.063Z,90.00
2018-05-24T12:10:05.814Z,90.30
2018-05-24T12:11:08.965Z,90.20
2018-05-24T12:12:06.534Z,90.20
2018-05-24T12:13:08.615Z,90.10
2018-05-24T12:14:06.716Z,90.10
2018-05-24T12:15:05.896Z,90.00
2018-05-24T12:16:10.661Z,90.20
2018-05-24T12:17:06.640Z,90.00
2018-05-24T12:18:06.073Z,90.10
2018-05-24T12:19:06.404Z,89.90
2018-05-24T12:20:11.107Z,89.90
2018-05-24T12:21:08.239Z,90.00
2018-05-24T12:22:08.238Z,89.80
2018-05-24T12:23:06.118Z,89.90
2018-05-24T12:24:05.630Z,89.90
2018-05-24T12:25:05.638Z,89.70
2018-05-24T12:26:11.261Z,89.70
2018-05-24T12:27:08.280Z,89.40
2018-05-24T12:28:08.444Z,89.40
2018-05-24T12:29:06.188Z,89.40
2018-05-24T12:30:06.468Z,89.40
2018-05-24T12:31:08.489Z,89.50
2018-05-24T12:32:08.508Z,89.40
2018-05-24T12:33:05.728Z,89.50
2018-05-24T12:34:06.009Z,89.50
2018-05-24T12:35:10.825Z,89.50
2018-05-24T12:36:07.245Z,89.50
2018-05-24T12:37:06.153Z,89.70
2018-05-24T12:38:05.860Z,89.70
2018-05-24T12:39:08.818Z,89.80
2018-05-24T12:40:08.799Z,89.80
2018-05-24T12:41:06.742Z,89.80
2018-05-24T12:42:06.520Z,89.70
2018-05-24T12:43:06.227Z,89.90
2018-05-24T12:44:05.778Z,89.90
2018-05-24T12:45:05.954Z,89.70
2018-05-24T12:46:06.141Z,89.70
2018-05-24T12:47:08.230Z,89.60
2018-05-24T12:48:05.871Z,89.70
2018-05-24T12:49:10.621Z,89.70
2018-05-24T12:50:08.587Z,89.70
2018-05-24T12:51:06.317Z,89.70
2018-05-24T12:52:06.275Z,89.70
2018-05-24T12:53:08.390Z,89.70